Time;durP1;ratioP1;P1;durP2;ratioP2;P2;SDS_P1;SDS_P2;PMS_P1;PMS_P2;Temp;Humidity;BMP_temperature;BMP_pressure;BME280_temperature;BME280_humidity;BME280_pressure;Samples;Min_cycle;Max_cycle;Signal;HPM_P1;HPM_P2
2024/01/25 00:01:12;;;;;;;9.73;2.30;;;7.50;99.90;;;;;;4969264;28;21453;-84
2024/01/25 00:03:38;;;;;;;12.87;2.93;;;7.50;99.90;;;;;;4967865;28;20514;-84
2024/01/25 00:06:07;;;;;;;11.13;2.87;;;7.50;99.90;;;;;;4970114;28;20031;-85
2024/01/25 00:08:34;;;;;;;12.47;2.73;;;7.50;99.90;;;;;;4968459;28;20034;-84
2024/01/25 00:11:01;;;;;;;11.77;2.67;;;7.50;99.90;;;;;;4968947;28;20057;-84
2024/01/25 00:13:26;;;;;;;12.87;3.30;;;7.50;99.90;;;;;;4968917;28;20030;-84
2024/01/25 00:15:52;;;;;;;13.57;2.80;;;7.50;99.90;;;;;;4969012;28;20034;-84
2024/01/25 00:18:17;;;;;;;12.70;3.20;;;7.50;99.90;;;;;;4967978;28;21471;-84
2024/01/25 00:20:43;;;;;;;11.57;2.63;;;7.50;99.90;;;;;;4951418;28;20043;-84
2024/01/25 00:23:08;;;;;;;12.40;2.47;;;7.50;99.90;;;;;;4969314;28;20027;-84
2024/01/25 00:25:34;;;;;;;9.97;2.27;;;7.60;99.90;;;;;;4951444;28;20035;-83
2024/01/25 00:28:00;;;;;;;11.37;2.50;;;7.60;99.90;;;;;;4967716;28;20039;-85
2024/01/25 00:30:25;;;;;;;14.17;3.23;;;7.60;99.90;;;;;;4951402;28;20064;-84
2024/01/25 00:32:51;;;;;;;11.50;2.53;;;7.60;99.90;;;;;;4969348;28;20038;-83
2024/01/25 00:35:16;;;;;;;11.47;2.30;;;7.60;99.90;;;;;;4969128;28;20031;-83
2024/01/25 00:37:42;;;;;;;11.73;2.53;;;7.60;99.90;;;;;;4967630;28;20030;-84
2024/01/25 00:40:09;;;;;;;12.30;2.53;;;7.60;99.90;;;;;;4968271;28;20031;-84
2024/01/25 00:42:48;;;;;;;16.90;3.13;;;7.60;99.90;;;;;;4970932;28;20158;-83
2024/01/25 00:45:14;;;;;;;10.70;2.20;;;7.60;99.90;;;;;;4969302;28;20067;-84
2024/01/25 00:47:40;;;;;;;11.30;2.67;;;7.60;99.90;;;;;;4968713;28;20038;-84
2024/01/25 00:50:06;;;;;;;12.10;2.23;;;7.60;99.90;;;;;;4967959;28;20073;-85
2024/01/25 00:52:32;;;;;;;13.97;2.97;;;7.70;99.90;;;;;;4968524;28;20066;-84
2024/01/25 00:54:58;;;;;;;10.30;2.40;;;7.70;99.90;;;;;;4968145;28;20747;-83
2024/01/25 00:57:23;;;;;;;15.80;2.57;;;7.60;99.90;;;;;;4967904;28;20098;-84
2024/01/25 00:59:49;;;;;;;9.93;2.23;;;7.60;99.90;;;;;;4968255;28;20125;-84
2024/01/25 01:02:15;;;;;;;13.87;2.27;;;7.70;99.90;;;;;;4968817;28;20090;-84
2024/01/25 01:04:41;;;;;;;12.27;2.60;;;7.70;99.90;;;;;;4971285;28;20084;-84
2024/01/25 01:07:08;;;;;;;14.63;2.87;;;7.80;99.90;;;;;;4970087;28;20054;-85
2024/01/25 01:09:33;;;;;;;12.20;3.20;;;7.80;99.90;;;;;;4969787;28;20131;-84
2024/01/25 01:11:59;;;;;;;13.00;2.57;;;7.80;99.90;;;;;;4969969;28;20027;-84
2024/01/25 01:14:25;;;;;;;17.77;2.90;;;7.90;99.90;;;;;;4969394;28;20051;-84
2024/01/25 01:16:51;;;;;;;12.70;2.67;;;7.80;99.90;;;;;;4969506;28;20145;-84
2024/01/25 01:19:17;;;;;;;15.00;2.70;;;7.80;99.90;;;;;;4968577;28;20043;-84
2024/01/25 01:21:43;;;;;;;14.87;3.47;;;7.80;99.90;;;;;;4969381;28;21311;-83
2024/01/25 01:24:12;;;;;;;13.03;2.27;;;7.80;99.90;;;;;;4951453;28;20027;-84
2024/01/25 01:26:38;;;;;;;19.70;3.43;;;7.80;99.90;;;;;;4968103;28;20034;-84
2024/01/25 01:29:04;;;;;;;15.57;2.57;;;7.80;99.90;;;;;;4967349;28;20023;-84
2024/01/25 01:31:30;;;;;;;16.07;3.50;;;7.70;99.90;;;;;;4967430;28;20066;-84
2024/01/25 01:33:55;;;;;;;20.43;3.00;;;7.70;99.90;;;;;;4968120;28;20054;-84
2024/01/25 01:36:21;;;;;;;13.50;2.87;;;7.70;99.90;;;;;;4967980;28;20042;-84
2024/01/25 01:38:47;;;;;;;16.10;4.00;;;7.80;99.90;;;;;;4965561;28;21420;-84
2024/01/25 01:41:13;;;;;;;16.70;2.97;;;7.80;99.90;;;;;;4969603;28;20494;-84
2024/01/25 01:43:38;;;;;;;8.13;2.70;;;7.80;99.90;;;;;;4969978;28;20098;-84
2024/01/25 01:46:11;;;;;;;11.30;2.53;;;7.70;99.90;;;;;;4971950;28;20164;-84
2024/01/25 01:48:40;;;;;;;13.47;2.33;;;7.80;99.90;;;;;;4969719;28;20023;-84
2024/01/25 01:51:07;;;;;;;15.60;3.20;;;7.70;99.90;;;;;;4970532;28;20027;-84
2024/01/25 01:53:34;;;;;;;14.53;2.80;;;7.70;99.90;;;;;;4970078;28;20122;-85
2024/01/25 01:55:59;;;;;;;19.97;4.03;;;7.60;99.90;;;;;;4969329;28;21685;-84
2024/01/25 01:58:26;;;;;;;16.73;3.33;;;7.60;99.90;;;;;;4969455;28;20031;-85
2024/01/25 02:00:53;;;;;;;14.57;2.47;;;7.60;99.90;;;;;;4968836;28;20058;-84
2024/01/25 02:03:19;;;;;;;15.90;3.23;;;7.70;99.90;;;;;;4970024;28;20073;-83
2024/01/25 02:05:45;;;;;;;20.73;3.20;;;7.70;99.90;;;;;;4969561;28;20054;-84
2024/01/25 02:08:10;;;;;;;16.63;3.37;;;7.60;99.90;;;;;;4968825;28;20035;-84
2024/01/25 02:10:36;;;;;;;12.53;2.53;;;7.60;99.90;;;;;;4967818;28;20041;-85
2024/01/25 02:13:01;;;;;;;18.30;2.80;;;7.60;99.90;;;;;;4969287;28;20691;-85
2024/01/25 02:15:27;;;;;;;28.93;4.43;;;7.60;99.90;;;;;;4968924;28;20045;-84
2024/01/25 02:17:52;;;;;;;14.00;2.60;;;7.60;99.90;;;;;;4967059;28;20035;-84
2024/01/25 02:20:18;;;;;;;16.87;2.77;;;7.50;99.90;;;;;;4969401;28;20019;-85
2024/01/25 02:22:44;;;;;;;16.53;2.97;;;7.60;99.90;;;;;;4970025;28;20122;-84
2024/01/25 02:25:09;;;;;;;10.80;2.57;;;7.60;99.90;;;;;;4968999;28;20027;-85
2024/01/25 02:27:38;;;;;;;13.43;3.37;;;7.60;99.90;;;;;;4968665;28;20026;-84
2024/01/25 02:30:06;;;;;;;13.87;2.70;;;7.60;99.90;;;;;;4969042;28;20090;-84
2024/01/25 02:32:32;;;;;;;12.70;2.50;;;7.60;99.90;;;;;;4970428;28;20038;-84
2024/01/25 02:34:57;;;;;;;18.67;4.20;;;7.60;99.90;;;;;;4967938;28;20031;-84
2024/01/25 02:37:23;;;;;;;13.70;2.60;;;7.60;99.90;;;;;;4968452;28;20031;-84
2024/01/25 02:39:48;;;;;;;12.63;2.83;;;7.60;99.90;;;;;;4967570;28;20039;-84
2024/01/25 02:42:16;;;;;;;13.13;2.53;;;7.60;99.90;;;;;;4967834;28;20050;-84
2024/01/25 02:44:42;;;;;;;10.73;2.30;;;7.60;99.90;;;;;;4968643;28;20656;-85
2024/01/25 02:47:07;;;;;;;15.87;4.13;;;7.70;99.90;;;;;;4969166;28;20162;-84
2024/01/25 02:49:33;;;;;;;14.93;3.00;;;7.60;99.90;;;;;;4968929;28;20034;-84
2024/01/25 02:51:58;;;;;;;15.63;2.80;;;7.60;99.90;;;;;;4968447;28;20031;-85
2024/01/25 02:54:24;;;;;;;14.57;2.73;;;7.60;99.90;;;;;;4968718;28;20154;-83
2024/01/25 02:56:49;;;;;;;12.07;2.87;;;7.60;99.90;;;;;;4968653;28;20041;-84
2024/01/25 02:59:15;;;;;;;15.67;3.33;;;7.60;99.90;;;;;;4968527;28;20042;-84
2024/01/25 03:01:41;;;;;;;11.60;2.97;;;7.60;99.90;;;;;;4968303;28;20035;-84
2024/01/25 03:04:07;;;;;;;14.10;2.23;;;7.70;99.90;;;;;;4952527;28;20039;-83
2024/01/25 03:06:33;;;;;;;13.73;2.73;;;7.70;99.90;;;;;;4969705;28;20105;-84
2024/01/25 03:08:58;;;;;;;18.50;3.50;;;7.70;99.90;;;;;;4968074;28;20047;-84
2024/01/25 03:11:24;;;;;;;12.30;2.70;;;7.70;99.90;;;;;;4969344;28;20094;-85
2024/01/25 03:13:49;;;;;;;11.63;2.53;;;7.70;99.90;;;;;;4967693;28;20053;-84
2024/01/25 03:16:15;;;;;;;9.80;2.23;;;7.70;99.90;;;;;;4969146;28;20035;-82
2024/01/25 03:18:40;;;;;;;9.43;2.47;;;7.70;99.90;;;;;;4968566;28;20474;-81
2024/01/25 03:21:06;;;;;;;15.63;3.00;;;7.70;99.90;;;;;;4968741;28;20058;-82
2024/01/25 03:23:31;;;;;;;7.67;1.93;;;7.70;99.90;;;;;;4969379;28;20027;-81
2024/01/25 03:25:57;;;;;;;13.83;3.20;;;7.70;99.90;;;;;;4969290;28;21041;-84
2024/01/25 03:28:22;;;;;;;12.70;2.77;;;7.70;99.90;;;;;;4967984;28;20041;-84
2024/01/25 03:30:48;;;;;;;14.13;3.33;;;7.70;99.90;;;;;;4968855;28;20042;-84
2024/01/25 03:33:13;;;;;;;10.33;2.63;;;7.60;99.90;;;;;;4968163;28;21148;-84
2024/01/25 03:35:39;;;;;;;17.47;3.63;;;7.60;99.90;;;;;;4969084;28;20034;-84
2024/01/25 03:38:04;;;;;;;14.80;2.40;;;7.60;99.90;;;;;;4967569;28;20109;-84
2024/01/25 03:40:30;;;;;;;17.13;2.87;;;7.60;99.90;;;;;;4968350;28;21571;-85
2024/01/25 03:42:55;;;;;;;11.27;2.87;;;7.60;99.90;;;;;;4969243;28;20055;-84
2024/01/25 03:45:21;;;;;;;13.90;2.73;;;7.60;99.90;;;;;;4968228;28;20027;-85
2024/01/25 03:47:46;;;;;;;10.37;2.43;;;7.70;99.90;;;;;;4967508;28;21319;-84
2024/01/25 03:50:12;;;;;;;13.70;2.43;;;7.70;99.90;;;;;;4968227;28;20054;-84
2024/01/25 03:52:37;;;;;;;13.80;2.40;;;7.80;99.90;;;;;;4966931;28;20031;-84
2024/01/25 03:55:04;;;;;;;13.90;2.23;;;7.80;99.90;;;;;;4964343;28;20086;-84
2024/01/25 03:57:29;;;;;;;11.53;1.90;;;7.80;99.90;;;;;;4965457;28;20035;-84
2024/01/25 03:59:55;;;;;;;12.70;2.47;;;7.80;99.90;;;;;;4965320;28;20054;-84
2024/01/25 04:02:20;;;;;;;13.00;3.03;;;7.80;99.90;;;;;;4965287;28;20043;-85
2024/01/25 04:04:46;;;;;;;17.27;2.90;;;7.80;99.90;;;;;;4969204;28;20508;-84
2024/01/25 04:07:11;;;;;;;11.30;2.27;;;7.80;99.90;;;;;;4970178;28;20038;-84
2024/01/25 04:09:38;;;;;;;12.50;2.63;;;7.70;99.90;;;;;;4968675;28;20035;-84
2024/01/25 04:12:04;;;;;;;17.27;2.97;;;7.80;99.90;;;;;;4970349;28;20133;-85
2024/01/25 04:14:29;;;;;;;13.67;2.97;;;7.70;99.90;;;;;;4970820;28;20098;-84
2024/01/25 04:16:54;;;;;;;10.17;2.20;;;7.80;99.90;;;;;;4969980;28;20031;-82
2024/01/25 04:19:20;;;;;;;8.83;1.93;;;7.70;99.90;;;;;;4970054;28;20045;-83
2024/01/25 04:21:46;;;;;;;16.07;3.40;;;7.70;99.90;;;;;;4971321;28;20046;-82
2024/01/25 04:24:11;;;;;;;10.40;2.97;;;7.70;99.90;;;;;;4969358;28;20026;-84
2024/01/25 04:26:37;;;;;;;16.57;3.23;;;7.70;99.90;;;;;;4969282;28;20026;-83
2024/01/25 04:29:02;;;;;;;13.20;2.80;;;7.70;99.90;;;;;;4968312;28;20046;-83
2024/01/25 04:31:27;;;;;;;11.40;2.70;;;7.70;99.90;;;;;;4968520;28;20027;-83
2024/01/25 04:33:53;;;;;;;13.10;2.40;;;7.70;99.90;;;;;;4969443;28;20027;-83
2024/01/25 04:36:18;;;;;;;15.77;2.50;;;7.70;99.90;;;;;;4967696;28;20466;-83
2024/01/25 04:38:44;;;;;;;11.90;2.20;;;7.60;99.90;;;;;;4967609;28;20046;-83
2024/01/25 04:41:10;;;;;;;13.77;3.00;;;7.60;99.90;;;;;;4968892;28;20061;-83
2024/01/25 04:43:36;;;;;;;17.30;2.87;;;7.60;99.90;;;;;;4968691;28;20117;-82
2024/01/25 04:46:02;;;;;;;9.50;2.20;;;7.60;99.90;;;;;;4968908;28;20034;-84
2024/01/25 04:48:28;;;;;;;13.60;2.50;;;7.60;99.90;;;;;;4968548;28;20030;-82
2024/01/25 04:50:54;;;;;;;11.90;2.30;;;7.60;99.90;;;;;;4970133;28;20358;-83
2024/01/25 04:53:19;;;;;;;15.20;2.60;;;7.60;99.90;;;;;;4971056;28;20031;-82
2024/01/25 04:55:45;;;;;;;15.43;2.50;;;7.60;99.90;;;;;;4971502;28;20034;-83
2024/01/25 04:58:11;;;;;;;15.70;4.03;;;7.50;99.90;;;;;;4971023;28;20056;-82
2024/01/25 05:00:38;;;;;;;15.10;2.77;;;7.50;99.90;;;;;;4967585;28;20039;-82
2024/01/25 05:03:04;;;;;;;11.00;2.30;;;7.50;99.90;;;;;;4967851;28;20038;-83
2024/01/25 05:05:29;;;;;;;10.37;2.47;;;7.50;99.90;;;;;;4970630;28;20086;-83
2024/01/25 05:07:55;;;;;;;8.63;2.30;;;7.40;99.90;;;;;;4968195;28;20027;-83
2024/01/25 05:10:20;;;;;;;18.50;2.47;;;7.50;99.90;;;;;;4967925;28;20023;-83
2024/01/25 05:12:46;;;;;;;14.00;2.37;;;7.40;99.90;;;;;;4968317;28;20102;-78
2024/01/25 05:15:11;;;;;;;8.93;1.90;;;7.40;99.90;;;;;;4970543;28;21065;-78
2024/01/25 05:17:37;;;;;;;16.73;2.27;;;7.40;99.90;;;;;;4971444;28;20035;-78
2024/01/25 05:20:03;;;;;;;8.97;2.13;;;7.40;99.90;;;;;;4968818;28;20018;-78
2024/01/25 05:22:28;;;;;;;15.40;2.40;;;7.40;99.90;;;;;;4970491;28;20049;-78
2024/01/25 05:24:54;;;;;;;17.33;2.87;;;7.40;99.90;;;;;;4971690;28;20510;-79
2024/01/25 05:27:19;;;;;;;13.03;2.83;;;7.40;99.90;;;;;;4970509;28;20101;-78
2024/01/25 05:29:45;;;;;;;10.27;1.90;;;7.30;99.90;;;;;;4971723;28;20038;-77
2024/01/25 05:32:10;;;;;;;16.27;2.93;;;7.30;99.90;;;;;;4971557;28;20027;-78
2024/01/25 05:34:36;;;;;;;14.80;2.80;;;7.20;99.90;;;;;;4971859;28;20500;-78
2024/01/25 05:37:01;;;;;;;8.03;2.20;;;7.30;99.90;;;;;;4971564;28;20026;-78
2024/01/25 05:39:27;;;;;;;8.73;2.37;;;7.20;99.90;;;;;;4971207;28;20035;-78
2024/01/25 05:41:52;;;;;;;11.33;2.33;;;7.30;99.90;;;;;;4971271;28;20038;-78
2024/01/25 05:44:18;;;;;;;12.60;2.33;;;7.30;99.90;;;;;;4970792;28;20038;-78
2024/01/25 05:46:43;;;;;;;10.93;2.07;;;7.20;99.90;;;;;;4969892;28;20034;-78
2024/01/25 05:49:09;;;;;;;16.13;2.53;;;7.20;99.90;;;;;;4969760;28;20560;-78
2024/01/25 05:51:35;;;;;;;16.17;3.70;;;7.30;99.90;;;;;;4967485;28;20055;-81
2024/01/25 05:54:01;;;;;;;10.10;1.90;;;7.30;99.90;;;;;;4968523;28;20062;-82
2024/01/25 05:56:26;;;;;;;12.93;2.57;;;7.30;99.90;;;;;;4949252;28;20022;-81
2024/01/25 05:58:52;;;;;;;15.77;2.87;;;7.20;99.90;;;;;;4966157;28;20057;-82
2024/01/25 06:01:17;;;;;;;16.93;4.00;;;7.20;99.90;;;;;;4967408;28;20125;-81
2024/01/25 06:03:43;;;;;;;15.47;2.77;;;7.20;99.90;;;;;;4967303;28;20058;-80
2024/01/25 06:06:08;;;;;;;8.57;2.00;;;7.20;99.90;;;;;;4963663;28;20050;-81
2024/01/25 06:08:34;;;;;;;11.33;2.60;;;7.20;99.90;;;;;;4968520;28;20094;-82
2024/01/25 06:11:00;;;;;;;14.10;3.83;;;7.10;99.90;;;;;;4969637;28;20056;-81
2024/01/25 06:13:28;;;;;;;10.67;2.70;;;7.10;99.90;;;;;;4964941;28;20037;-81
2024/01/25 06:15:54;;;;;;;15.13;2.63;;;7.10;99.90;;;;;;4964939;28;20023;-81
2024/01/25 06:18:19;;;;;;;13.13;3.00;;;7.10;99.90;;;;;;4965061;28;20093;-81
2024/01/25 06:20:45;;;;;;;14.60;3.20;;;7.10;99.90;;;;;;4968240;28;21145;-81
2024/01/25 06:23:10;;;;;;;14.03;3.47;;;7.10;99.90;;;;;;4967281;28;20042;-81
2024/01/25 06:25:37;;;;;;;9.10;2.33;;;7.00;99.90;;;;;;4950625;28;20023;-81
2024/01/25 06:28:03;;;;;;;12.33;2.63;;;7.00;99.90;;;;;;4966504;28;20793;-83
2024/01/25 06:30:29;;;;;;;14.70;3.03;;;7.00;99.90;;;;;;4966987;28;20042;-81
2024/01/25 06:32:54;;;;;;;17.60;2.83;;;7.00;99.90;;;;;;4964599;28;20134;-82
2024/01/25 06:35:20;;;;;;;17.03;3.17;;;7.00;99.90;;;;;;4966334;28;20037;-82
2024/01/25 06:37:45;;;;;;;18.00;2.87;;;6.90;99.90;;;;;;4965527;28;20030;-82
2024/01/25 06:40:11;;;;;;;18.07;3.10;;;6.80;99.90;;;;;;4964564;28;20046;-80
2024/01/25 06:42:37;;;;;;;19.93;3.03;;;6.80;99.90;;;;;;4965570;28;20125;-83
2024/01/25 06:45:02;;;;;;;16.53;3.13;;;6.80;99.90;;;;;;4966222;28;20077;-82
2024/01/25 06:47:28;;;;;;;16.07;3.20;;;6.80;99.90;;;;;;4964481;28;20037;-83
2024/01/25 06:49:53;;;;;;;16.67;2.80;;;6.80;99.90;;;;;;4965459;28;20074;-81
2024/01/25 06:52:19;;;;;;;14.13;3.50;;;6.70;99.90;;;;;;4966114;28;20029;-83
2024/01/25 06:54:45;;;;;;;24.27;3.53;;;6.70;99.90;;;;;;4968393;28;20037;-82
2024/01/25 06:57:10;;;;;;;21.77;3.20;;;6.70;99.90;;;;;;4966241;28;20033;-82
2024/01/25 06:59:36;;;;;;;16.93;3.07;;;6.60;99.90;;;;;;4963627;28;20042;-83
2024/01/25 07:02:02;;;;;;;18.73;3.53;;;6.60;99.90;;;;;;4963164;28;20047;-83
2024/01/25 07:04:28;;;;;;;15.97;2.90;;;6.50;99.90;;;;;;4963759;28;20095;-83
2024/01/25 07:06:54;;;;;;;22.80;3.20;;;6.50;99.90;;;;;;4964589;28;20035;-83
2024/01/25 07:09:20;;;;;;;14.77;3.00;;;6.40;99.90;;;;;;4963648;28;20034;-83
2024/01/25 07:11:45;;;;;;;18.37;3.60;;;6.40;99.90;;;;;;4964560;28;20058;-83
2024/01/25 07:14:11;;;;;;;14.83;3.33;;;6.30;99.90;;;;;;4963393;28;20023;-83
2024/01/25 07:16:37;;;;;;;15.10;3.73;;;6.30;99.90;;;;;;4964132;28;20026;-83
2024/01/25 07:19:03;;;;;;;15.57;3.40;;;6.30;99.90;;;;;;4965712;28;21425;-83
2024/01/25 07:21:31;;;;;;;26.37;6.57;;;6.20;99.90;;;;;;4964228;28;20035;-82
2024/01/25 07:24:02;;;;;;;17.20;3.33;;;6.20;99.90;;;;;;4948228;28;20039;-83
2024/01/25 07:26:27;;;;;;;17.67;3.63;;;6.20;99.90;;;;;;4946516;28;20041;-82
2024/01/25 07:28:57;;;;;;;14.80;2.70;;;6.20;99.90;;;;;;4963457;28;20031;-83
2024/01/25 07:31:26;;;;;;;13.93;3.63;;;6.10;99.90;;;;;;4958549;28;20053;-88
2024/01/25 07:33:52;;;;;;;15.67;3.40;;;6.10;99.90;;;;;;4962344;28;20037;-85
2024/01/25 07:36:18;;;;;;;16.53;3.37;;;6.10;99.90;;;;;;4965530;28;20023;-84
2024/01/25 07:38:46;;;;;;;13.30;2.80;;;6.10;99.90;;;;;;4965196;28;20026;-85
2024/01/25 07:41:12;;;;;;;13.97;3.33;;;6.00;99.90;;;;;;4967069;28;20030;-84
2024/01/25 07:43:38;;;;;;;15.17;3.90;;;6.00;99.90;;;;;;4965890;28;20086;-85
2024/01/25 07:46:03;;;;;;;15.53;2.60;;;6.10;99.90;;;;;;4966328;28;20039;-84
2024/01/25 07:48:29;;;;;;;15.67;3.17;;;6.10;99.90;;;;;;4965402;28;20023;-84
2024/01/25 07:50:54;;;;;;;21.20;3.67;;;6.10;99.90;;;;;;4966422;28;20031;-85
2024/01/25 07:53:20;;;;;;;14.70;3.70;;;6.10;99.90;;;;;;4966266;28;20089;-84
2024/01/25 07:55:45;;;;;;;19.77;4.33;;;6.20;99.90;;;;;;4965043;28;20157;-84
2024/01/25 07:58:11;;;;;;;14.97;3.00;;;6.20;99.90;;;;;;4964072;28;20027;-84
2024/01/25 08:00:36;;;;;;;19.53;3.10;;;6.30;99.90;;;;;;4950811;28;20027;-85
2024/01/25 08:03:02;;;;;;;19.13;3.90;;;6.40;99.90;;;;;;4964606;28;20042;-82
2024/01/25 08:05:28;;;;;;;19.57;3.90;;;6.50;99.90;;;;;;4962559;28;20035;-83
2024/01/25 08:07:54;;;;;;;21.07;4.47;;;6.60;99.90;;;;;;4964692;28;20108;-84
2024/01/25 08:10:19;;;;;;;20.33;4.30;;;6.60;99.90;;;;;;4964287;28;20029;-84
2024/01/25 08:12:47;;;;;;;15.87;3.13;;;6.60;99.90;;;;;;4965454;28;20121;-84
2024/01/25 08:15:13;;;;;;;17.23;4.00;;;6.60;99.90;;;;;;4964340;28;20037;-84
2024/01/25 08:17:38;;;;;;;22.33;3.63;;;6.70;99.90;;;;;;4965788;28;20449;-84
2024/01/25 08:20:06;;;;;;;19.33;3.87;;;6.70;99.90;;;;;;4963806;28;20070;-84
2024/01/25 08:22:32;;;;;;;20.70;3.70;;;6.80;99.90;;;;;;4964449;28;20128;-84
2024/01/25 08:24:57;;;;;;;15.47;2.90;;;6.80;99.90;;;;;;4964734;28;20031;-83
2024/01/25 08:27:23;;;;;;;19.13;3.00;;;6.90;99.90;;;;;;4961619;28;20046;-85
2024/01/25 08:29:48;;;;;;;14.07;2.90;;;7.00;99.90;;;;;;4963931;28;20085;-83
2024/01/25 08:32:14;;;;;;;13.90;2.70;;;7.00;99.90;;;;;;4965334;28;21428;-84
2024/01/25 08:34:39;;;;;;;16.50;3.07;;;7.10;99.90;;;;;;4966762;28;20085;-85
2024/01/25 08:37:05;;;;;;;13.13;3.50;;;7.10;99.90;;;;;;4967307;28;20035;-84
2024/01/25 08:39:31;;;;;;;18.10;3.90;;;7.10;99.90;;;;;;4967770;28;20054;-84
2024/01/25 08:42:00;;;;;;;14.30;3.33;;;7.10;99.90;;;;;;4968887;28;20042;-84
2024/01/25 08:44:26;;;;;;;12.17;3.07;;;7.10;99.90;;;;;;4966163;28;20030;-84
2024/01/25 08:46:51;;;;;;;12.60;2.83;;;7.10;99.90;;;;;;4965393;28;20034;-84
2024/01/25 08:49:17;;;;;;;18.27;3.87;;;7.20;99.90;;;;;;4965273;28;20023;-85
2024/01/25 08:51:42;;;;;;;23.57;3.87;;;7.20;99.90;;;;;;4967127;28;20031;-84
2024/01/25 08:54:08;;;;;;;18.33;3.63;;;7.30;99.90;;;;;;4965484;28;20498;-83
2024/01/25 08:56:34;;;;;;;18.50;3.53;;;7.30;99.90;;;;;;4964909;28;20023;-83
2024/01/25 08:59:00;;;;;;;20.13;3.70;;;7.30;99.90;;;;;;4964745;28;20035;-84
2024/01/25 09:01:25;;;;;;;19.43;3.03;;;7.30;99.90;;;;;;4966624;28;20057;-84
2024/01/25 09:03:52;;;;;;;13.47;3.60;;;7.40;99.90;;;;;;4966400;28;20027;-84
2024/01/25 09:06:17;;;;;;;22.33;4.13;;;7.50;99.90;;;;;;4964695;28;20019;-84
2024/01/25 09:08:43;;;;;;;20.53;3.70;;;7.50;99.90;;;;;;4960230;28;20066;-84
2024/01/25 09:11:08;;;;;;;19.37;3.73;;;7.60;99.90;;;;;;4965754;28;20077;-84
2024/01/25 09:13:34;;;;;;;18.77;3.60;;;7.70;99.90;;;;;;4962241;28;20033;-84
2024/01/25 09:15:59;;;;;;;19.80;3.30;;;7.80;99.90;;;;;;4964236;28;20110;-84
2024/01/25 09:18:25;;;;;;;16.93;3.27;;;7.90;99.90;;;;;;4947096;28;20117;-84
2024/01/25 09:20:51;;;;;;;21.23;3.80;;;8.00;99.90;;;;;;4964109;28;20090;-84
2024/01/25 09:23:16;;;;;;;21.97;3.63;;;8.10;99.90;;;;;;4949220;28;20035;-84
2024/01/25 09:25:43;;;;;;;19.10;4.10;;;8.00;99.90;;;;;;4966151;28;20046;-84
2024/01/25 09:28:08;;;;;;;19.10;4.03;;;8.10;99.90;;;;;;4947351;28;20069;-84
2024/01/25 09:30:34;;;;;;;21.90;3.97;;;8.10;99.90;;;;;;4965549;28;21676;-84
2024/01/25 09:32:59;;;;;;;21.77;3.60;;;8.10;99.90;;;;;;4963919;28;20071;-85
2024/01/25 09:35:25;;;;;;;18.77;3.73;;;8.10;99.90;;;;;;4963079;28;20047;-85
2024/01/25 09:37:52;;;;;;;17.70;4.30;;;8.10;99.90;;;;;;4964813;28;21491;-85
2024/01/25 09:40:20;;;;;;;17.27;3.53;;;8.20;99.90;;;;;;4965563;28;20118;-86
2024/01/25 09:42:47;;;;;;;16.47;3.43;;;8.20;99.90;;;;;;4965837;28;20165;-85
2024/01/25 09:45:16;;;;;;;13.70;3.03;;;8.30;99.90;;;;;;4964950;28;20497;-86
2024/01/25 09:47:42;;;;;;;19.47;3.03;;;8.30;99.90;;;;;;4965316;28;20062;-85
2024/01/25 09:50:08;;;;;;;25.53;4.27;;;8.40;99.90;;;;;;4964722;28;20474;-86
2024/01/25 09:52:35;;;;;;;16.67;3.63;;;8.50;99.90;;;;;;4947260;28;20397;-86
2024/01/25 09:55:01;;;;;;;21.93;4.30;;;8.50;99.90;;;;;;4964742;28;20034;-83
2024/01/25 09:57:30;;;;;;;20.03;3.60;;;8.60;99.90;;;;;;4965118;28;20493;-86
2024/01/25 09:59:55;;;;;;;18.37;4.93;;;8.70;99.90;;;;;;4964075;28;20418;-83
2024/01/25 10:02:21;;;;;;;18.33;3.83;;;8.80;99.90;;;;;;4964575;28;20043;-83
2024/01/25 10:04:50;;;;;;;16.03;3.63;;;8.80;99.90;;;;;;4963015;28;20023;-84
2024/01/25 10:07:16;;;;;;;21.90;3.87;;;8.90;99.90;;;;;;4961951;28;20153;-85
2024/01/25 10:09:44;;;;;;;20.67;4.00;;;8.90;99.90;;;;;;4963660;28;20154;-85
2024/01/25 10:12:10;;;;;;;22.93;4.43;;;9.00;99.90;;;;;;4964978;28;20022;-85
2024/01/25 10:14:36;;;;;;;17.13;4.10;;;8.90;99.90;;;;;;4963718;28;20033;-85
2024/01/25 10:17:02;;;;;;;20.07;4.23;;;8.90;99.90;;;;;;4945542;28;20023;-85
2024/01/25 10:19:28;;;;;;;16.77;3.23;;;8.90;99.90;;;;;;4963064;28;20023;-84
2024/01/25 10:21:53;;;;;;;21.10;3.20;;;8.90;99.90;;;;;;4963068;28;20037;-84
2024/01/25 10:24:18;;;;;;;13.90;3.30;;;8.70;99.90;;;;;;4962807;28;20037;-86
2024/01/25 10:26:44;;;;;;;20.43;4.20;;;8.70;99.90;;;;;;4957697;28;20058;-85
2024/01/25 10:29:10;;;;;;;24.70;4.17;;;8.80;99.90;;;;;;4962018;28;20051;-86
2024/01/25 10:31:40;;;;;;;18.60;3.67;;;8.70;99.90;;;;;;4963858;28;20033;-85
2024/01/25 10:34:11;;;;;;;21.10;3.53;;;8.70;99.90;;;;;;4947845;28;20061;-84
2024/01/25 10:36:38;;;;;;;19.13;4.47;;;8.80;99.90;;;;;;4963722;28;20031;-85
2024/01/25 10:39:04;;;;;;;14.07;3.67;;;8.70;99.90;;;;;;4961806;28;20039;-86
2024/01/25 10:41:32;;;;;;;19.67;4.17;;;8.80;99.90;;;;;;4963122;28;20081;-86
2024/01/25 10:43:57;;;;;;;23.00;3.93;;;8.80;99.90;;;;;;4962336;28;20025;-87
2024/01/25 10:46:24;;;;;;;17.63;3.57;;;8.80;99.90;;;;;;4962816;28;20042;-85
2024/01/25 10:48:50;;;;;;;18.50;3.80;;;8.80;99.90;;;;;;4963100;28;20537;-86
2024/01/25 10:51:18;;;;;;;15.33;3.97;;;8.80;99.90;;;;;;4963708;28;20046;-85
2024/01/25 10:53:44;;;;;;;19.93;3.57;;;8.70;99.90;;;;;;4963702;28;20031;-85
2024/01/25 10:56:10;;;;;;;18.40;3.83;;;8.60;99.90;;;;;;4963735;28;20066;-86
2024/01/25 10:58:35;;;;;;;18.50;3.60;;;8.50;99.90;;;;;;4964322;28;20026;-86
2024/01/25 11:01:03;;;;;;;19.73;3.53;;;8.50;99.90;;;;;;4965801;28;20027;-86
2024/01/25 11:03:30;;;;;;;17.47;3.03;;;8.40;99.90;;;;;;4959987;28;20041;-85
2024/01/25 11:06:09;;;;;;;19.47;3.70;;;8.50;99.90;;;;;;4963093;28;20547;-82
2024/01/25 11:08:38;;;;;;;16.93;3.20;;;8.50;99.90;;;;;;4963226;28;20037;-82
2024/01/25 11:11:07;;;;;;;21.70;4.23;;;8.50;99.90;;;;;;4962677;28;20038;-82
2024/01/25 11:13:33;;;;;;;16.03;3.70;;;8.50;99.90;;;;;;4968245;28;20027;-82
2024/01/25 11:15:58;;;;;;;19.70;3.67;;;8.50;99.90;;;;;;4966985;28;20025;-82
2024/01/25 11:18:27;;;;;;;18.57;3.33;;;8.60;99.90;;;;;;4967242;28;20035;-82
2024/01/25 11:20:52;;;;;;;18.67;4.10;;;8.70;99.90;;;;;;4967139;28;20038;-82
2024/01/25 11:23:18;;;;;;;18.97;3.67;;;8.80;99.90;;;;;;4968021;28;20062;-82
2024/01/25 11:25:48;;;;;;;18.10;3.10;;;8.80;99.90;;;;;;4967506;28;20744;-82
2024/01/25 11:28:15;;;;;;;16.20;3.07;;;8.80;99.90;;;;;;4968181;28;20078;-82
2024/01/25 11:30:42;;;;;;;16.53;3.80;;;8.80;99.90;;;;;;4950615;28;20023;-82
2024/01/25 11:33:08;;;;;;;13.27;3.00;;;8.90;99.90;;;;;;4968017;28;20031;-82
2024/01/25 11:35:34;;;;;;;18.00;3.87;;;8.90;99.90;;;;;;4968011;28;20034;-82
2024/01/25 11:38:00;;;;;;;12.83;3.20;;;9.00;99.90;;;;;;4968382;28;20030;-82
2024/01/25 11:40:27;;;;;;;14.27;3.30;;;9.10;99.90;;;;;;4968746;28;20072;-82
2024/01/25 11:42:53;;;;;;;10.30;3.30;;;9.20;99.90;;;;;;4967318;28;20421;-81
2024/01/25 11:45:18;;;;;;;14.20;3.53;;;9.20;99.90;;;;;;4967856;28;20027;-82
2024/01/25 11:47:45;;;;;;;14.97;3.50;;;9.20;99.90;;;;;;4966573;28;20035;-82
2024/01/25 11:50:12;;;;;;;12.47;2.47;;;9.30;99.90;;;;;;4966614;28;20085;-82
2024/01/25 11:52:38;;;;;;;12.97;3.17;;;9.50;99.90;;;;;;4967023;28;20030;-83
2024/01/25 11:55:08;;;;;;;10.60;2.87;;;9.60;99.90;;;;;;4967993;28;20023;-82
2024/01/25 11:57:40;;;;;;;16.43;3.23;;;9.80;99.90;;;;;;4965337;28;20031;-82
2024/01/25 12:00:09;;;;;;;14.57;3.17;;;9.80;99.90;;;;;;4965027;28;20490;-82
2024/01/25 12:02:36;;;;;;;17.17;3.30;;;9.90;99.90;;;;;;4967766;28;20090;-82
2024/01/25 12:05:02;;;;;;;12.60;3.23;;;9.90;99.90;;;;;;4967374;28;20090;-83
2024/01/25 12:07:30;;;;;;;19.37;3.60;;;9.90;99.90;;;;;;4966275;28;20421;-83
2024/01/25 12:09:59;;;;;;;18.57;3.63;;;9.80;99.90;;;;;;4965587;28;20027;-82
2024/01/25 12:12:25;;;;;;;15.60;4.03;;;9.80;99.90;;;;;;4967256;28;20032;-82
2024/01/25 12:14:52;;;;;;;17.07;3.60;;;9.80;99.90;;;;;;4966585;28;20806;-83
2024/01/25 12:17:18;;;;;;;14.97;3.00;;;9.80;99.90;;;;;;4968315;28;20034;-83
2024/01/25 12:19:43;;;;;;;10.37;3.47;;;9.80;99.90;;;;;;4967689;28;20026;-83
2024/01/25 12:22:09;;;;;;;17.00;2.70;;;9.90;99.90;;;;;;4969019;28;20035;-83
2024/01/25 12:24:35;;;;;;;24.73;4.40;;;9.90;99.90;;;;;;4965256;28;20113;-83
2024/01/25 12:27:00;;;;;;;16.80;3.30;;;10.00;99.90;;;;;;4967674;28;20030;-82
2024/01/25 12:29:26;;;;;;;12.87;3.53;;;10.00;99.90;;;;;;4966792;28;20519;-83
2024/01/25 12:31:51;;;;;;;12.40;2.73;;;10.10;99.90;;;;;;4964908;28;20023;-83
2024/01/25 12:34:17;;;;;;;18.30;3.17;;;10.20;99.90;;;;;;4966179;28;20094;-83
2024/01/25 12:36:43;;;;;;;16.83;3.00;;;10.20;99.90;;;;;;4963657;28;20118;-84
2024/01/25 12:39:08;;;;;;;13.80;2.97;;;10.20;99.90;;;;;;4966043;28;20050;-84
2024/01/25 12:41:35;;;;;;;17.97;2.70;;;10.30;99.90;;;;;;4966610;28;20090;-83